Time;durP1;ratioP1;P1;durP2;ratioP2;P2;SDS_P1;SDS_P2;PMS_P1;PMS_P2;Temp;Humidity;BMP_temperature;BMP_pressure;BME280_temperature;BME280_humidity;BME280_pressure;Samples;Min_cycle;Max_cycle;Signal;HPM_P1;HPM_P2
2024/01/03 00:00:25;;;;;;;1.23;0.60;;;;;;;8.69;100.00;98350.06;4988074;28;20252;-74
2024/01/03 00:02:53;;;;;;;0.87;0.50;;;;;;;8.66;100.00;98346.59;4984741;28;20237;-76
2024/01/03 00:05:24;;;;;;;1.73;0.70;;;;;;;8.62;100.00;98361.56;4987443;28;20214;-75
2024/01/03 00:07:51;;;;;;;0.87;0.53;;;;;;;8.55;100.00;98338.81;4986484;28;20248;-74
2024/01/03 00:10:51;;;;;;;0.47;0.47;;;;;;;8.55;100.00;98359.91;4987803;28;20656;-74
2024/01/03 00:13:50;;;;;;;0.63;0.53;;;;;;;8.61;100.00;98375.66;4959712;28;20217;-74
2024/01/03 00:16:21;;;;;;;0.70;0.50;;;;;;;8.60;100.00;98376.56;4982983;28;20620;-75
2024/01/03 00:19:00;;;;;;;0.50;0.50;;;;;;;8.59;100.00;98388.00;4987786;28;20204;-75
2024/01/03 00:21:29;;;;;;;0.50;0.50;;;;;;;8.53;100.00;98382.78;4962833;28;20664;-75
2024/01/03 00:23:58;;;;;;;0.90;0.60;;;;;;;8.54;100.00;98387.19;5039738;22;20229;-70
2024/01/03 00:26:27;;;;;;;0.63;0.40;;;;;;;8.45;100.00;98376.72;5011567;28;20607;-70
2024/01/03 00:28:54;;;;;;;1.93;1.00;;;;;;;8.45;100.00;98374.97;5011129;28;20207;-70
2024/01/03 00:31:38;;;;;;;1.00;0.80;;;;;;;8.51;100.00;98371.38;5010747;28;20234;-70
2024/01/03 00:34:23;;;;;;;2.37;0.80;;;;;;;8.50;100.00;98389.88;5009953;28;20273;-70
2024/01/03 00:36:52;;;;;;;0.80;0.63;;;;;;;8.62;100.00;98384.44;5008931;28;20222;-70
2024/01/03 00:39:32;;;;;;;0.63;0.60;;;;;;;8.63;100.00;98397.63;5008354;28;20205;-70
2024/01/03 00:41:59;;;;;;;2.27;0.80;;;;;;;8.60;100.00;98392.38;5007658;28;20291;-70
2024/01/03 00:44:25;;;;;;;0.60;0.60;;;;;;;8.53;100.00;98389.84;5008863;28;20246;-70
2024/01/03 00:46:54;;;;;;;1.93;0.70;;;;;;;8.48;100.00;98392.53;5006524;28;20255;-70
2024/01/03 00:49:20;;;;;;;1.57;0.73;;;;;;;8.45;100.00;98397.84;5014876;28;20281;-70
2024/01/03 00:51:49;;;;;;;0.80;0.57;;;;;;;8.47;100.00;98399.56;5007607;28;20232;-70
2024/01/03 00:54:17;;;;;;;1.10;0.70;;;;;;;8.48;100.00;98397.78;5007549;28;20672;-70
2024/01/03 00:56:45;;;;;;;2.30;0.70;;;;;;;8.50;100.00;98392.50;4990757;28;20200;-70
2024/01/03 00:59:13;;;;;;;1.50;0.70;;;;;;;8.48;100.00;98398.66;5005802;28;20200;-70
2024/01/03 01:01:40;;;;;;;2.53;0.77;;;;;;;8.52;100.00;98409.19;5009250;28;20289;-70
2024/01/03 01:04:07;;;;;;;2.70;0.80;;;;;;;8.56;100.00;98413.53;5008387;28;20307;-70
2024/01/03 01:06:34;;;;;;;1.37;0.73;;;;;;;8.65;100.00;98403.75;5013685;28;20198;-71
2024/01/03 01:09:03;;;;;;;2.83;0.90;;;;;;;8.67;100.00;98417.81;5005945;28;20247;-70
2024/01/03 01:11:30;;;;;;;0.97;0.60;;;;;;;8.66;100.00;98428.38;5008896;28;20192;-70
2024/01/03 01:13:57;;;;;;;3.50;0.70;;;;;;;8.68;100.00;98421.31;5004734;28;20243;-70
2024/01/03 01:16:23;;;;;;;1.10;0.77;;;;;;;8.69;100.00;98417.78;5007044;28;20442;-70
2024/01/03 01:18:50;;;;;;;2.53;0.73;;;;;;;8.70;100.00;98415.13;5008684;28;20580;-70
2024/01/03 01:21:16;;;;;;;0.60;0.60;;;;;;;8.75;100.00;98412.44;5009244;28;20223;-71
2024/01/03 01:23:43;;;;;;;2.57;0.67;;;;;;;8.66;100.00;98405.50;5010001;28;20244;-71
2024/01/03 01:26:09;;;;;;;2.80;0.80;;;;;;;8.76;100.00;98409.78;5011072;28;20202;-70
2024/01/03 01:28:37;;;;;;;0.90;0.60;;;;;;;8.76;100.00;98408.91;5018472;28;20203;-70
2024/01/03 01:31:03;;;;;;;1.43;0.70;;;;;;;8.62;100.00;98390.59;5011849;28;20197;-70
2024/01/03 01:33:30;;;;;;;0.80;0.60;;;;;;;8.74;100.00;98400.13;5014428;28;20640;-70
2024/01/03 01:35:56;;;;;;;2.20;0.70;;;;;;;8.74;100.00;98408.06;5013675;28;20305;-71
2024/01/03 01:38:23;;;;;;;2.03;0.63;;;;;;;8.63;100.00;98402.03;5013582;28;20197;-70
2024/01/03 01:40:50;;;;;;;1.80;0.80;;;;;;;8.57;100.00;98416.16;5012047;28;20217;-70
2024/01/03 01:43:16;;;;;;;1.40;0.50;;;;;;;8.66;100.00;98415.19;5013814;28;20677;-70
2024/01/03 01:45:46;;;;;;;3.57;0.70;;;;;;;8.75;100.00;98417.72;5014551;28;20206;-70
2024/01/03 01:48:15;;;;;;;1.27;0.70;;;;;;;8.89;100.00;98420.22;5013964;28;20280;-70
2024/01/03 01:50:43;;;;;;;3.60;0.67;;;;;;;8.89;100.00;98421.09;5006787;28;20244;-70
2024/01/03 01:53:10;;;;;;;2.57;0.73;;;;;;;8.76;100.00;98415.06;5011757;28;20222;-70
2024/01/03 01:55:38;;;;;;;1.40;0.40;;;;;;;8.68;100.00;98434.50;5014242;28;20206;-71
2024/01/03 01:58:06;;;;;;;2.87;0.80;;;;;;;8.69;100.00;98428.34;5014173;28;20287;-70
2024/01/03 02:00:34;;;;;;;2.70;0.70;;;;;;;8.69;100.00;98437.13;5015598;28;20221;-70
2024/01/03 02:03:01;;;;;;;1.17;0.50;;;;;;;8.59;100.00;98439.88;5017201;28;20277;-70
2024/01/03 02:05:28;;;;;;;1.27;0.70;;;;;;;8.59;100.00;98435.50;5010486;28;20283;-70
2024/01/03 02:07:54;;;;;;;0.80;0.60;;;;;;;8.56;100.00;98435.53;5009837;28;20200;-70
2024/01/03 02:10:21;;;;;;;0.50;0.50;;;;;;;8.58;100.00;98436.38;5015995;28;20225;-70
2024/01/03 02:12:47;;;;;;;2.40;0.80;;;;;;;8.46;100.00;98429.47;5011818;28;20257;-70
2024/01/03 02:15:14;;;;;;;1.10;0.60;;;;;;;8.39;100.00;98435.66;5000441;28;20271;-70
2024/01/03 02:17:41;;;;;;;3.03;0.70;;;;;;;8.36;100.00;98450.66;5014844;28;20565;-70
2024/01/03 02:20:11;;;;;;;1.73;0.70;;;;;;;8.49;100.00;98452.31;5007376;28;20245;-70
2024/01/03 02:22:38;;;;;;;1.37;0.50;;;;;;;8.58;100.00;98446.94;5012427;28;20277;-70
2024/01/03 02:25:10;;;;;;;0.93;0.60;;;;;;;8.68;100.00;98451.22;5010757;28;20219;-70
2024/01/03 02:27:37;;;;;;;2.47;0.70;;;;;;;8.74;100.00;98443.22;5008795;28;20664;-70
2024/01/03 02:30:04;;;;;;;2.90;0.90;;;;;;;8.86;100.00;98439.59;5013038;28;20192;-70
2024/01/03 02:32:31;;;;;;;1.17;0.70;;;;;;;8.95;100.00;98439.50;5010418;28;20763;-69
2024/01/03 02:34:57;;;;;;;2.03;0.70;;;;;;;8.99;100.00;98437.69;5013422;28;20223;-70
2024/01/03 02:37:24;;;;;;;1.13;0.57;;;;;;;9.02;100.00;98441.16;5012928;28;20202;-70
2024/01/03 02:39:51;;;;;;;1.50;0.60;;;;;;;9.07;100.00;98446.38;4992236;28;20662;-69
2024/01/03 02:42:17;;;;;;;1.57;0.80;;;;;;;9.13;100.00;98429.59;5008363;28;20645;-70
2024/01/03 02:44:44;;;;;;;1.77;0.80;;;;;;;9.19;100.00;98437.44;5013414;28;20683;-69
2024/01/03 02:47:10;;;;;;;5.03;0.73;;;;;;;9.20;100.00;98434.78;5020248;28;20689;-70
2024/01/03 02:49:36;;;;;;;4.70;0.77;;;;;;;9.23;100.00;98437.41;5022007;28;20202;-70
2024/01/03 02:52:03;;;;;;;2.77;0.93;;;;;;;9.32;100.00;98433.78;5017989;28;20200;-70
2024/01/03 02:54:30;;;;;;;1.10;0.70;;;;;;;9.31;100.00;98442.59;5014108;28;20198;-69
2024/01/03 02:56:57;;;;;;;1.20;0.70;;;;;;;9.29;100.00;98437.31;5012231;28;20278;-70
2024/01/03 02:59:25;;;;;;;7.60;1.10;;;;;;;9.28;100.00;98434.69;5007126;28;20195;-70
2024/01/03 03:01:52;;;;;;;3.33;0.73;;;;;;;9.17;100.00;98439.22;5007616;28;20220;-70
2024/01/03 03:04:18;;;;;;;4.90;0.90;;;;;;;9.17;100.00;98439.22;5013441;28;20210;-69
2024/01/03 03:06:45;;;;;;;3.80;0.83;;;;;;;9.10;100.00;98452.50;5011255;28;20239;-70
2024/01/03 03:09:12;;;;;;;3.07;0.97;;;;;;;9.14;100.00;98439.25;5010810;28;20210;-70
2024/01/03 03:11:43;;;;;;;2.47;0.90;;;;;;;9.15;100.00;98443.66;5015357;28;20206;-70
2024/01/03 03:14:10;;;;;;;1.67;0.80;;;;;;;9.18;100.00;98456.81;5012328;28;20223;-70
2024/01/03 03:16:36;;;;;;;4.17;1.00;;;;;;;9.20;100.00;98449.75;5009949;28;20226;-69
2024/01/03 03:19:03;;;;;;;6.17;1.10;;;;;;;9.21;100.00;98452.41;5010086;28;20210;-70
2024/01/03 03:21:30;;;;;;;3.13;1.07;;;;;;;9.09;100.00;98448.13;5012062;28;20753;-69
2024/01/03 03:23:56;;;;;;;1.67;0.90;;;;;;;9.22;100.00;98440.06;5009452;28;20231;-70
2024/01/03 03:26:23;;;;;;;4.03;0.87;;;;;;;9.24;100.00;98438.28;5015403;28;20207;-70
2024/01/03 03:28:50;;;;;;;3.80;1.07;;;;;;;9.27;100.00;98441.75;5009210;28;20615;-70
2024/01/03 03:31:16;;;;;;;4.63;0.97;;;;;;;9.31;100.00;98438.19;5013350;28;20616;-70
2024/01/03 03:33:43;;;;;;;5.43;1.10;;;;;;;9.38;100.00;98434.56;5011862;28;20315;-70
2024/01/03 03:36:13;;;;;;;6.63;1.30;;;;;;;9.44;100.00;98438.88;5010426;28;20670;-70
2024/01/03 03:38:40;;;;;;;2.73;0.77;;;;;;;9.44;100.00;98436.25;5009248;28;20207;-70
2024/01/03 03:41:11;;;;;;;4.53;1.10;;;;;;;9.43;100.00;98430.06;5009524;28;20582;-70
2024/01/03 03:43:39;;;;;;;3.83;0.90;;;;;;;9.44;100.00;98428.31;5013832;28;20887;-70
2024/01/03 03:46:07;;;;;;;4.77;0.87;;;;;;;9.49;100.00;98434.41;5009841;28;20195;-69
2024/01/03 03:48:34;;;;;;;3.83;1.00;;;;;;;9.49;100.00;98439.69;5010279;28;20218;-70
2024/01/03 03:51:01;;;;;;;4.33;1.37;;;;;;;9.47;100.00;98441.47;5014430;28;20217;-70
2024/01/03 03:53:28;;;;;;;4.67;1.00;;;;;;;9.45;100.00;98437.09;5011748;28;20222;-69
2024/01/03 03:55:54;;;;;;;2.40;0.90;;;;;;;9.46;100.00;98452.94;5012299;28;20253;-70
2024/01/03 03:58:20;;;;;;;3.90;0.80;;;;;;;9.46;100.00;98460.88;5018700;28;20207;-70
2024/01/03 04:00:47;;;;;;;5.60;1.10;;;;;;;9.43;100.00;98469.72;5008133;28;20737;-69
2024/01/03 04:03:13;;;;;;;3.90;0.90;;;;;;;9.34;100.00;98461.91;5005935;28;20212;-69
2024/01/03 04:05:40;;;;;;;2.93;1.00;;;;;;;9.31;100.00;98456.66;5011143;28;20214;-70
2024/01/03 04:08:07;;;;;;;1.73;0.70;;;;;;;9.18;100.00;98455.06;5012694;28;20231;-70
2024/01/03 04:10:34;;;;;;;3.43;1.03;;;;;;;9.11;100.00;98470.09;5012346;28;20196;-70
2024/01/03 04:13:00;;;;;;;3.33;0.90;;;;;;;9.05;100.00;98466.66;5011237;28;20223;-70
2024/01/03 04:15:27;;;;;;;4.27;0.80;;;;;;;8.99;100.00;98477.28;4993551;28;20202;-70
2024/01/03 04:17:56;;;;;;;2.87;1.00;;;;;;;8.91;100.00;98473.88;5011704;28;20672;-70
2024/01/03 04:20:22;;;;;;;3.47;0.80;;;;;;;8.90;100.00;98473.00;5012101;28;20216;-70
2024/01/03 04:22:49;;;;;;;2.87;0.97;;;;;;;8.88;100.00;98463.34;5008577;28;20233;-70
2024/01/03 04:25:16;;;;;;;3.10;0.80;;;;;;;8.94;100.00;98465.91;5007948;28;20205;-70
2024/01/03 04:27:43;;;;;;;4.77;1.00;;;;;;;8.99;100.00;98477.28;5010565;28;20202;-70
2024/01/03 04:30:09;;;;;;;4.13;1.00;;;;;;;8.98;100.00;98475.53;5011982;28;20206;-70
2024/01/03 04:32:36;;;;;;;5.37;0.90;;;;;;;9.00;100.00;98471.13;5008250;28;20276;-70
2024/01/03 04:35:02;;;;;;;4.70;1.30;;;;;;;9.02;100.00;98477.25;5007984;28;20568;-70
2024/01/03 04:37:30;;;;;;;3.50;0.80;;;;;;;9.03;100.00;98477.25;5015469;28;20193;-70
2024/01/03 04:39:56;;;;;;;4.57;1.13;;;;;;;8.98;100.00;98480.81;5008789;28;20199;-70
2024/01/03 04:42:23;;;;;;;5.77;1.50;;;;;;;8.99;100.00;98486.09;5009677;28;20231;-70
2024/01/03 04:44:49;;;;;;;4.50;0.80;;;;;;;9.01;100.00;98486.06;5008608;28;20213;-70
2024/01/03 04:47:16;;;;;;;6.03;1.00;;;;;;;8.90;100.00;98485.31;5010474;28;20287;-70
2024/01/03 04:49:42;;;;;;;4.77;1.13;;;;;;;8.91;100.00;98481.78;5020269;28;20204;-70
2024/01/03 04:52:11;;;;;;;3.07;1.03;;;;;;;8.91;100.00;98477.38;5020675;28;20199;-69
2024/01/03 04:54:38;;;;;;;4.07;1.53;;;;;;;8.91;100.00;98464.19;5006612;28;20210;-69
2024/01/03 04:57:04;;;;;;;6.90;1.13;;;;;;;8.93;100.00;98472.09;5013220;28;20652;-70
2024/01/03 04:59:30;;;;;;;7.90;1.23;;;;;;;9.00;100.00;98472.00;5016439;28;20259;-69
2024/01/03 05:01:57;;;;;;;7.77;1.47;;;;;;;9.08;100.00;98464.84;5019159;28;20248;-70
2024/01/03 05:04:23;;;;;;;4.67;1.20;;;;;;;9.15;100.00;98464.78;5014256;28;20210;-70
2024/01/03 05:06:51;;;;;;;5.23;1.10;;;;;;;9.17;100.00;98469.16;5012026;28;20227;-70
2024/01/03 05:09:17;;;;;;;5.23;1.10;;;;;;;9.30;100.00;98454.03;5010331;28;20283;-70
2024/01/03 05:11:44;;;;;;;2.53;0.80;;;;;;;9.35;100.00;98462.78;5015911;28;20191;-69
2024/01/03 05:14:10;;;;;;;5.47;1.30;;;;;;;9.38;100.00;98462.75;4994197;28;20864;-69
2024/01/03 05:16:37;;;;;;;4.23;0.97;;;;;;;9.48;100.00;98471.41;5009138;28;20290;-69
2024/01/03 05:19:03;;;;;;;3.60;1.03;;;;;;;9.51;100.00;98463.44;5013037;28;20205;-69
2024/01/03 05:21:30;;;;;;;4.17;1.17;;;;;;;9.53;100.00;98475.75;5012151;28;21138;-69
2024/01/03 05:23:56;;;;;;;4.30;1.40;;;;;;;9.55;100.00;98463.38;5013721;28;20668;-70
2024/01/03 05:26:23;;;;;;;9.13;1.23;;;;;;;9.53;100.00;98465.16;5013341;28;20631;-70
2024/01/03 05:28:49;;;;;;;3.20;0.97;;;;;;;9.53;100.00;98470.47;5011695;28;20223;-70
2024/01/03 05:31:16;;;;;;;5.47;1.10;;;;;;;9.57;100.00;98469.50;5008734;28;20195;-70
2024/01/03 05:33:42;;;;;;;4.30;1.00;;;;;;;9.53;100.00;98470.47;5008492;28;20703;-69
2024/01/03 05:36:09;;;;;;;5.30;1.10;;;;;;;9.56;100.00;98473.06;5007040;28;20197;-69
2024/01/03 05:38:37;;;;;;;4.90;1.10;;;;;;;9.65;100.00;98469.44;5010447;28;20202;-70
2024/01/03 05:41:04;;;;;;;6.77;1.33;;;;;;;9.69;100.00;98469.38;5010873;28;20238;-69
2024/01/03 05:43:34;;;;;;;4.53;0.97;;;;;;;9.66;100.00;98469.41;4993355;28;20677;-70
2024/01/03 05:46:01;;;;;;;7.23;1.43;;;;;;;9.64;100.00;98470.34;5004762;28;20212;-70
2024/01/03 05:48:27;;;;;;;4.03;1.27;;;;;;;9.65;100.00;98472.94;5009592;28;20900;-70
2024/01/03 05:50:54;;;;;;;5.90;1.27;;;;;;;9.68;100.00;98472.03;5008246;28;20258;-69
2024/01/03 05:53:20;;;;;;;10.70;1.57;;;;;;;9.72;100.00;98471.97;5009698;28;20228;-70
2024/01/03 05:55:47;;;;;;;6.70;0.97;;;;;;;9.66;100.00;98473.81;5010066;28;20250;-69
2024/01/03 05:58:13;;;;;;;3.87;1.40;;;;;;;9.68;100.00;98472.03;5010822;28;20207;-69
2024/01/03 06:00:40;;;;;;;8.07;1.70;;;;;;;9.62;100.00;98461.56;5009057;28;20249;-69
2024/01/03 06:03:07;;;;;;;6.63;1.10;;;;;;;9.61;100.00;98473.03;4990792;28;20302;-70
2024/01/03 06:05:33;;;;;;;6.27;1.37;;;;;;;9.57;100.00;98479.22;5010148;28;20229;-69
2024/01/03 06:08:00;;;;;;;7.80;1.63;;;;;;;9.55;100.00;98481.00;5010562;28;20204;-70
2024/01/03 06:10:26;;;;;;;6.50;1.10;;;;;;;9.61;100.00;98473.03;5010814;28;20221;-70
2024/01/03 06:12:53;;;;;;;9.60;1.40;;;;;;;9.56;100.00;98477.47;5007659;28;20638;-70
2024/01/03 06:15:19;;;;;;;8.50;1.30;;;;;;;9.49;100.00;98466.09;5010046;28;20798;-70
2024/01/03 06:17:46;;;;;;;5.03;1.20;;;;;;;9.39;100.00;98457.44;5009952;28;20691;-70
2024/01/03 06:20:12;;;;;;;6.20;1.20;;;;;;;9.30;100.00;98461.97;5009751;28;20224;-69
2024/01/03 06:22:39;;;;;;;6.37;1.37;;;;;;;9.33;100.00;98468.09;5025835;22;20239;-77
2024/01/03 06:25:05;;;;;;;3.27;1.30;;;;;;;9.38;100.00;98460.09;5014409;28;20211;-77
2024/01/03 06:27:32;;;;;;;7.73;1.73;;;;;;;9.51;100.00;98455.53;5027962;28;20672;-78
2024/01/03 06:29:58;;;;;;;6.13;1.13;;;;;;;9.56;100.00;98466.91;5027897;28;20249;-77
2024/01/03 06:32:25;;;;;;;6.10;1.40;;;;;;;9.57;100.00;98460.72;5030721;28;20563;-77
2024/01/03 06:34:51;;;;;;;8.27;1.70;;;;;;;9.53;100.00;98457.25;5025689;28;20298;-78
2024/01/03 06:37:18;;;;;;;8.80;1.40;;;;;;;9.68;100.00;98464.97;5016875;28;20255;-77
2024/01/03 06:39:44;;;;;;;6.43;1.20;;;;;;;9.55;100.00;98465.16;5006999;28;20210;-75
2024/01/03 06:42:11;;;;;;;8.33;1.00;;;;;;;9.52;100.00;98467.84;5020725;28;20385;-76
2024/01/03 06:44:37;;;;;;;6.53;1.30;;;;;;;9.54;100.00;98472.19;5013274;28;20343;-75
2024/01/03 06:47:04;;;;;;;8.03;1.20;;;;;;;9.51;100.00;98469.59;5019198;28;20207;-75
2024/01/03 06:49:30;;;;;;;2.40;0.93;;;;;;;9.51;100.00;98480.16;5027934;28;20292;-78
2024/01/03 06:51:57;;;;;;;7.33;1.27;;;;;;;9.45;100.00;98488.19;5014309;28;20222;-77
2024/01/03 06:54:23;;;;;;;5.90;1.03;;;;;;;9.30;100.00;98467.25;5009081;28;20394;-75
2024/01/03 06:56:50;;;;;;;6.57;1.47;;;;;;;9.36;100.00;98489.19;5024126;28;20212;-76
2024/01/03 06:59:16;;;;;;;4.10;1.17;;;;;;;9.33;100.00;98465.44;5015628;28;20587;-74
2024/01/03 07:01:43;;;;;;;3.70;0.97;;;;;;;9.44;100.00;98478.50;5025201;28;20218;-74
2024/01/03 07:04:09;;;;;;;5.17;1.00;;;;;;;9.55;100.00;98473.94;5020623;28;20298;-74
2024/01/03 07:06:35;;;;;;;7.70;1.10;;;;;;;9.58;100.00;98476.53;5014966;28;20209;-76
2024/01/03 07:09:02;;;;;;;4.73;1.10;;;;;;;9.54;100.00;98477.50;5014354;28;20299;-76
2024/01/03 07:11:29;;;;;;;3.10;0.93;;;;;;;9.50;100.00;98477.56;5015332;28;20321;-76
2024/01/03 07:13:58;;;;;;;6.20;1.07;;;;;;;9.35;100.00;98463.66;5026079;28;20694;-76
2024/01/03 07:16:26;;;;;;;8.33;1.00;;;;;;;9.49;100.00;98481.09;5021991;28;20199;-78
2024/01/03 07:18:53;;;;;;;7.03;1.20;;;;;;;9.52;100.00;98481.03;5015985;28;20674;-76
2024/01/03 07:21:20;;;;;;;4.83;1.07;;;;;;;9.51;100.00;98466.97;5024061;28;20276;-76
2024/01/03 07:23:46;;;;;;;5.17;1.20;;;;;;;9.62;100.00;98478.28;5022349;28;20209;-76
2024/01/03 07:26:13;;;;;;;5.77;1.00;;;;;;;9.66;100.00;98487.91;5021379;28;20197;-76
2024/01/03 07:28:39;;;;;;;5.57;0.87;;;;;;;9.66;100.00;98492.34;5019637;28;20738;-76
2024/01/03 07:31:06;;;;;;;9.53;1.07;;;;;;;9.64;100.00;98484.41;5015587;28;20222;-76
2024/01/03 07:33:32;;;;;;;11.00;1.80;;;;;;;9.67;100.00;98486.16;5019981;28;20238;-76
2024/01/03 07:35:59;;;;;;;6.70;1.20;;;;;;;9.66;100.00;98492.34;5024328;28;20192;-75
2024/01/03 07:38:26;;;;;;;4.33;1.37;;;;;;;9.57;100.00;98493.28;5024034;28;20192;-74
2024/01/03 07:40:52;;;;;;;4.63;1.50;;;;;;;9.59;100.00;98503.84;5006514;28;20313;-75
2024/01/03 07:43:19;;;;;;;5.07;1.23;;;;;;;9.61;100.00;98491.53;5023704;28;20227;-76
2024/01/03 07:45:45;;;;;;;6.30;1.20;;;;;;;9.64;100.00;98483.56;5026599;28;20208;-75
2024/01/03 07:48:12;;;;;;;7.00;1.43;;;;;;;9.66;100.00;98490.56;5026807;28;20656;-75
2024/01/03 07:50:39;;;;;;;5.33;1.40;;;;;;;9.64;100.00;98483.56;5022760;28;20735;-76
2024/01/03 07:53:07;;;;;;;5.17;1.27;;;;;;;9.70;100.00;98491.38;5015823;28;20253;-76
2024/01/03 07:55:33;;;;;;;6.13;1.27;;;;;;;9.75;100.00;98489.56;5014530;28;20654;-76
2024/01/03 07:58:00;;;;;;;8.23;1.20;;;;;;;9.80;100.00;98486.84;5015641;28;20204;-76
2024/01/03 08:00:30;;;;;;;3.87;1.20;;;;;;;9.84;100.00;98491.19;5021595;28;20284;-76
2024/01/03 08:02:57;;;;;;;1.67;0.83;;;;;;;9.84;100.00;98489.41;5006862;28;20781;-76
2024/01/03 08:05:23;;;;;;;5.67;1.00;;;;;;;9.87;100.00;98489.38;5009854;28;20256;-76
2024/01/03 08:07:50;;;;;;;4.17;1.27;;;;;;;9.85;100.00;98487.66;5028327;28;20647;-76
2024/01/03 08:10:17;;;;;;;2.43;0.90;;;;;;;9.82;100.00;98483.28;5018587;28;20280;-76
2024/01/03 08:12:43;;;;;;;3.90;1.00;;;;;;;9.77;100.00;98479.81;5015578;28;20255;-76
2024/01/03 08:15:10;;;;;;;2.50;0.70;;;;;;;9.82;100.00;98483.28;5026100;28;20235;-76
2024/01/03 08:17:36;;;;;;;1.40;0.70;;;;;;;9.77;100.00;98469.25;5019755;28;20204;-76
2024/01/03 08:20:03;;;;;;;2.20;0.93;;;;;;;9.66;100.00;98476.47;5025903;28;20257;-76
2024/01/03 08:22:30;;;;;;;3.90;0.87;;;;;;;9.67;100.00;98467.66;5029654;28;20288;-76
2024/01/03 08:24:57;;;;;;;2.20;0.60;;;;;;;9.63;100.00;98465.94;4998418;28;20245;-75
2024/01/03 08:27:23;;;;;;;2.00;0.60;;;;;;;9.71;100.00;98474.63;5020714;28;20290;-74
2024/01/03 08:29:51;;;;;;;2.20;0.70;;;;;;;9.74;100.00;98464.88;5015701;28;20587;-75
2024/01/03 08:32:17;;;;;;;2.23;0.50;;;;;;;9.64;100.00;98472.97;5027792;28;20217;-75
2024/01/03 08:34:45;;;;;;;1.47;0.53;;;;;;;9.57;100.00;98456.31;5023431;28;20587;-75
2024/01/03 08:37:12;;;;;;;1.30;0.90;;;;;;;9.93;100.00;98449.63;5020318;28;20221;-75
2024/01/03 08:39:39;;;;;;;2.00;0.57;;;;;;;10.00;100.00;98455.69;5022041;28;20578;-74
2024/01/03 08:42:06;;;;;;;2.90;0.70;;;;;;;9.99;100.00;98457.44;5015148;28;20221;-75
2024/01/03 08:44:33;;;;;;;1.30;0.70;;;;;;;10.00;100.00;98448.63;5015153;28;20198;-75
2024/01/03 08:46:59;;;;;;;2.10;0.70;;;;;;;10.12;100.00;98450.22;5018844;28;20203;-75
2024/01/03 08:49:26;;;;;;;3.53;1.03;;;;;;;10.16;100.00;98456.31;5019862;28;20206;-75
2024/01/03 08:51:53;;;;;;;2.57;0.60;;;;;;;10.27;100.00;98467.63;5028230;28;21877;-74
2024/01/03 08:54:19;;;;;;;2.80;0.73;;;;;;;10.35;100.00;98432.22;5025882;28;22126;-75
2024/01/03 08:56:50;;;;;;;2.87;0.70;;;;;;;10.60;100.00;98452.97;5017663;28;20256;-75
2024/01/03 08:59:16;;;;;;;1.17;0.73;;;;;;;10.77;100.00;98461.47;5019902;28;20202;-75
2024/01/03 09:01:43;;;;;;;3.37;0.70;;;;;;;10.75;100.00;98457.09;5018403;28;20303;-74
2024/01/03 09:04:09;;;;;;;1.10;0.70;;;;;;;10.83;100.00;98453.44;5018975;28;20285;-76
2024/01/03 09:06:38;;;;;;;1.87;0.60;;;;;;;10.86;100.00;98458.66;5020113;28;20688;-76
2024/01/03 09:09:04;;;;;;;3.10;0.60;;;;;;;10.99;100.00;98461.94;5017367;28;20581;-77
2024/01/03 09:11:31;;;;;;;2.20;0.60;;;;;;;11.03;100.00;98458.31;5016474;28;20301;-78
2024/01/03 09:13:58;;;;;;;6.47;0.70;;;;;;;11.04;100.00;98448.59;5021388;28;20237;-78
2024/01/03 09:16:28;;;;;;;2.00;0.60;;;;;;;11.25;100.00;98456.13;5020837;28;20199;-79
2024/01/03 09:18:55;;;;;;;1.80;0.60;;;;;;;11.37;100.00;98455.88;5015700;28;20205;-81
2024/01/03 09:21:22;;;;;;;2.10;0.63;;;;;;;11.37;100.00;98466.47;5016189;28;20215;-81
2024/01/03 09:23:50;;;;;;;4.23;0.73;;;;;;;11.41;100.00;98478.75;5023573;28;20224;-80
2024/01/03 09:26:20;;;;;;;3.00;0.70;;;;;;;11.55;100.00;98476.69;5022895;28;20226;-81
2024/01/03 09:28:47;;;;;;;4.23;1.13;;;;;;;11.71;100.00;98477.25;5017185;28;20213;-82
2024/01/03 09:31:14;;;;;;;3.07;0.67;;;;;;;12.00;100.00;98478.38;5020262;28;20224;-80
2024/01/03 09:33:41;;;;;;;3.37;0.63;;;;;;;12.16;100.00;98479.78;5014095;28;20236;-80
2024/01/03 09:36:17;;;;;;;3.33;0.70;;;;;;;12.33;100.00;98480.25;5014258;28;20222;-80
2024/01/03 09:38:43;;;;;;;1.67;0.60;;;;;;;12.33;100.00;98484.69;5014310;28;20197;-80
2024/01/03 09:41:12;;;;;;;2.53;0.60;;;;;;;12.33;100.00;98495.28;5020166;28;20219;-80
2024/01/03 09:43:42;;;;;;;2.30;0.70;;;;;;;12.41;100.00;98496.88;5019523;28;20228;-80
2024/01/03 09:46:12;;;;;;;2.67;0.70;;;;;;;12.36;100.00;98496.09;5022421;28;20286;-79
2024/01/03 09:48:44;;;;;;;3.83;0.77;;;;;;;12.38;100.00;98491.63;5030384;28;20209;-80
2024/01/03 09:51:10;;;;;;;3.23;0.80;;;;;;;12.36;100.00;98492.56;5022319;28;20634;-79
2024/01/03 09:53:40;;;;;;;4.70;0.70;;;;;;;12.36;100.00;98508.50;5022876;28;20197;-78
2024/01/03 09:56:07;;;;;;;5.83;0.80;;;;;;;12.30;100.00;98509.50;5025699;28;20202;-78
2024/01/03 09:58:33;;;;;;;0.97;0.60;;;;;;;12.48;100.00;98517.06;5023648;28;20203;-78
2024/01/03 10:01:04;;;;;;;2.77;0.77;;;;;;;12.61;100.00;98514.09;5020673;28;20644;-78
2024/01/03 10:03:30;;;;;;;3.70;0.90;;;;;;;12.71;100.00;98513.81;5021433;28;20309;-79
2024/01/03 10:06:05;;;;;;;3.17;0.83;;;;;;;12.86;100.00;98507.25;5024221;28;20196;-78
2024/01/03 10:08:34;;;;;;;2.67;0.80;;;;;;;12.95;100.00;98498.16;5007237;28;20590;-78
2024/01/03 10:11:01;;;;;;;5.07;1.13;;;;;;;13.05;100.00;98511.16;5021365;28;20216;-78
2024/01/03 10:13:28;;;;;;;2.87;0.97;;;;;;;13.17;100.00;98512.63;5018260;28;20692;-78
2024/01/03 10:16:02;;;;;;;3.70;0.80;;;;;;;13.16;100.00;98509.06;5020753;28;20253;-77
2024/01/03 10:18:29;;;;;;;3.97;0.80;;;;;;;13.09;100.00;98510.16;5021289;28;20475;-76
2024/01/03 10:21:12;;;;;;;3.10;0.70;;;;;;;13.05;100.00;98497.88;4997794;28;20471;-79
2024/01/03 10:23:39;;;;;;;3.63;0.90;;;;;;;12.82;100.00;98501.16;5024159;28;20710;-76
2024/01/03 10:26:05;;;;;;;5.33;0.90;;;;;;;12.75;100.00;98509.28;5020281;28;20210;-80
2024/01/03 10:28:32;;;;;;;2.73;0.80;;;;;;;12.70;100.00;98541.28;5028619;28;20209;-78
2024/01/03 10:30:59;;;;;;;4.53;0.90;;;;;;;12.49;100.00;98521.44;5019401;28;20284;-78
2024/01/03 10:33:26;;;;;;;4.30;1.00;;;;;;;12.47;100.00;98535.69;5019361;28;20203;-78
2024/01/03 10:35:53;;;;;;;4.77;1.20;;;;;;;12.61;100.00;98533.56;5022069;28;20223;-77
2024/01/03 10:38:22;;;;;;;7.47;1.13;;;;;;;12.67;100.00;98535.19;5022954;28;20370;-76
2024/01/03 10:40:49;;;;;;;3.73;1.10;;;;;;;12.69;100.00;98533.34;5021270;28;20246;-77
2024/01/03 10:43:16;;;;;;;4.07;1.00;;;;;;;12.59;100.00;98523.88;5022124;28;20219;-76
2024/01/03 10:45:42;;;;;;;4.37;1.00;;;;;;;12.67;100.00;98536.06;5017387;28;20225;-76
2024/01/03 10:48:09;;;;;;;4.57;0.93;;;;;;;12.57;100.00;98538.97;5030570;28;20294;-75
2024/01/03 10:50:36;;;;;;;6.10;1.37;;;;;;;12.59;100.00;98535.38;5017479;28;20258;-78
2024/01/03 10:53:09;;;;;;;2.87;0.73;;;;;;;12.52;100.00;98531.13;5021214;28;20217;-77
2024/01/03 10:55:37;;;;;;;4.33;0.97;;;;;;;12.52;100.00;98547.94;5021920;28;20727;-76
2024/01/03 10:58:20;;;;;;;5.77;0.90;;;;;;;12.47;100.00;98528.59;5022019;28;20202;-76
2024/01/03 11:01:14;;;;;;;6.57;1.10;;;;;;;12.52;100.00;98536.44;5020628;28;20839;-77
2024/01/03 11:04:16;;;;;;;6.53;1.20;;;;;;;12.65;100.00;98537.88;5020518;28;20227;-76
2024/01/03 11:07:20;;;;;;;3.60;1.13;;;;;;;12.65;100.00;98526.38;5020343;28;20204;-76
2024/01/03 11:09:47;;;;;;;5.10;0.90;;;;;;;12.59;100.00;98522.09;5017973;28;20202;-79
2024/01/03 11:12:13;;;;;;;2.33;0.70;;;;;;;12.52;100.00;98526.69;5011183;28;20313;-76
2024/01/03 11:14:40;;;;;;;4.50;0.87;;;;;;;12.49;100.00;98529.41;5021329;28;20203;-78
2024/01/03 11:17:09;;;;;;;2.67;0.67;;;;;;;12.60;100.00;98534.47;5001752;28;20201;-76
2024/01/03 11:19:38;;;;;;;8.13;0.90;;;;;;;12.85;100.00;98532.94;5016269;28;20210;-76
2024/01/03 11:22:05;;;;;;;4.00;0.90;;;;;;;13.23;100.00;98520.47;5013561;28;20243;-76
2024/01/03 11:24:31;;;;;;;4.37;1.03;;;;;;;13.23;99.86;98531.09;5017131;28;20288;-74
2024/01/03 11:27:03;;;;;;;3.60;1.00;;;;;;;13.27;100.00;98516.81;5014546;28;20200;-76
2024/01/03 11:29:43;;;;;;;3.67;1.30;;;;;;;13.46;100.00;98530.44;5022039;28;20588;-77
2024/01/03 11:32:31;;;;;;;2.30;0.83;;;;;;;13.46;98.06;98517.16;5023978;28;20298;-75
2024/01/03 11:35:06;;;;;;;5.27;1.20;;;;;;;13.49;97.38;98519.72;5005609;28;20683;-75